Main page
METAR-TAF:

METAR-TAF

Airports :

Kangra Airport

Dharamsala, India

latitude: 32-09-54N, longitude: 76-15-48E, elevation: 770 m

METAR: missing

Time: 03:41 (22:11 UTC)

Forecast

The report was made 17 hours and 11 minutes ago, at 05:00 UTC
Forecast valid from 22 at 06 UTC to 22 at 15 UTC
Wind 9 kt from the Northeast
Visibility: 4000 m
Broken clouds at a height of 3000 ft
Overcast at a height of 8000 ft
mist, light rain
Becoming
from 22 at 06 UTC to 22 at 12 UTC
Visibility: 1500 m
Few clouds at a height of 3000 ft, Cumulonimbus.
Overcast at a height of 6000 ft
thunderstorm, rain

TAF: VIGG 220500Z 2206/2215 05009KT 4000 BR -RA BKN030 OVC080 BECMG 2206/2212 1500 TSRA FEW030CB OVC060

Weather observations and forecasts of more than 4000 airports (METAR and TAF reports).

The available stations are represented by yellow and red dots on the map.

Hover mouse over dot to see the name of the station.

Then click to see weather observations and forecasts.

To change the map : click on the green buttons with a black cross to zoom in, on the green button with a dash to zoom out, or on the green arrows for adjacent maps.


METAR-TAF: